createdAt,value
2023-03-19T00:00:29.086Z,86.33
2023-03-19T00:02:56.357Z,84.41
2023-03-19T00:05:24.416Z,83.04
2023-03-19T00:07:51.353Z,84.49
2023-03-19T00:10:18.663Z,85.66
2023-03-19T00:12:46.154Z,84.63
2023-03-19T00:15:14.742Z,83.70
2023-03-19T00:17:42.451Z,84.53
2023-03-19T00:20:11.263Z,86.57
2023-03-19T00:22:38.781Z,86.41
2023-03-19T00:25:06.387Z,85.41
2023-03-19T00:27:33.581Z,85.40
2023-03-19T00:30:02.731Z,85.54
2023-03-19T00:32:30.234Z,86.94
2023-03-19T00:34:57.972Z,87.68
2023-03-19T00:37:24.753Z,87.81
2023-03-19T00:39:51.669Z,85.10
2023-03-19T00:42:18.726Z,87.75
2023-03-19T00:44:46.835Z,88.01
2023-03-19T00:47:13.625Z,87.79
2023-03-19T00:49:40.430Z,87.93
2023-03-19T00:52:07.991Z,88.55
2023-03-19T00:54:34.926Z,86.83
2023-03-19T00:57:02.467Z,86.26
2023-03-19T00:59:30.046Z,84.70
2023-03-19T01:01:57.665Z,84.71
2023-03-19T01:04:25.118Z,83.65
2023-03-19T01:06:52.674Z,85.00
2023-03-19T01:09:20.264Z,85.78
2023-03-19T01:11:48.284Z,85.55
2023-03-19T01:14:17.955Z,85.63
2023-03-19T01:16:45.524Z,85.83
2023-03-19T01:19:15.926Z,86.49
2023-03-19T01:21:46.544Z,85.59
2023-03-19T01:24:18.548Z,86.27
2023-03-19T01:26:53.404Z,87.60
2023-03-19T01:29:34.783Z,86.70
2023-03-19T01:32:17.692Z,85.25
2023-03-19T01:35:24.648Z,87.29
2023-03-19T01:37:53.141Z,87.41
2023-03-19T01:40:21.778Z,89.27
2023-03-19T01:43:04.259Z,88.91
2023-03-19T01:45:59.187Z,88.12
2023-03-19T01:49:01.607Z,87.77
2023-03-19T01:51:48.776Z,87.93
2023-03-19T01:54:38.914Z,87.23
2023-03-19T01:57:41.134Z,88.06
2023-03-19T02:00:33.574Z,86.94
2023-03-19T02:03:02.431Z,86.91
2023-03-19T02:05:51.639Z,87.98
2023-03-19T02:08:23.483Z,86.92
2023-03-19T02:10:52.790Z,86.68
2023-03-19T02:13:20.951Z,86.36
2023-03-19T02:15:50.085Z,85.83
2023-03-19T02:18:19.085Z,86.71
2023-03-19T02:21:06.277Z,86.38
2023-03-19T02:23:54.380Z,86.94
2023-03-19T02:26:33.943Z,85.93
2023-03-19T02:29:04.303Z,86.22
2023-03-19T02:31:34.702Z,86.08
2023-03-19T02:34:03.752Z,86.68
2023-03-19T02:36:37.714Z,87.76
2023-03-19T02:39:07.867Z,87.70
2023-03-19T02:41:36.930Z,84.99
2023-03-19T02:44:05.885Z,84.76
2023-03-19T02:46:33.645Z,85.75
2023-03-19T02:49:00.978Z,86.24
2023-03-19T02:51:31.524Z,84.30
2023-03-19T02:54:02.003Z,85.96
2023-03-19T02:56:31.177Z,86.81
2023-03-19T02:58:59.236Z,86.19
2023-03-19T03:01:27.274Z,85.87
2023-03-19T03:03:54.492Z,84.12
2023-03-19T03:06:22.617Z,85.20
2023-03-19T03:08:50.207Z,85.08
2023-03-19T03:11:18.068Z,84.71
2023-03-19T03:13:46.885Z,85.87
2023-03-19T03:16:14.807Z,85.09
2023-03-19T03:18:44.432Z,85.63
2023-03-19T03:21:12.139Z,85.89
2023-03-19T03:23:39.098Z,85.48
2023-03-19T03:26:06.832Z,84.86
2023-03-19T03:28:34.155Z,84.85
2023-03-19T03:31:02.635Z,84.92
2023-03-19T03:33:30.085Z,84.93
2023-03-19T03:35:58.372Z,85.91
2023-03-19T03:38:27.702Z,85.21
2023-03-19T03:40:55.831Z,85.73
2023-03-19T03:43:27.098Z,85.80
2023-03-19T03:45:56.069Z,86.04
2023-03-19T03:48:23.703Z,86.93
2023-03-19T03:50:51.670Z,85.75
2023-03-19T03:53:22.821Z,86.68
2023-03-19T03:55:49.653Z,85.79
2023-03-19T03:58:20.608Z,87.27
2023-03-19T04:00:48.044Z,87.45
2023-03-19T04:03:14.888Z,87.99
2023-03-19T04:05:42.361Z,86.59
2023-03-19T04:08:09.888Z,86.95
2023-03-19T04:10:40.765Z,86.62
2023-03-19T04:13:07.757Z,85.83
2023-03-19T04:15:35.225Z,86.57
2023-03-19T04:18:03.261Z,87.37
2023-03-19T04:20:30.437Z,86.51
2023-03-19T04:22:57.196Z,85.41
2023-03-19T04:25:23.946Z,86.46
2023-03-19T04:27:52.463Z,85.62
2023-03-19T04:30:20.149Z,85.91
2023-03-19T04:32:47.730Z,86.80
2023-03-19T04:35:15.728Z,87.66
2023-03-19T04:37:48.426Z,86.42
2023-03-19T04:40:17.159Z,84.99
2023-03-19T04:42:45.080Z,85.19
2023-03-19T04:45:28.842Z,85.42
2023-03-19T04:47:56.720Z,86.25
2023-03-19T04:50:24.238Z,87.16
2023-03-19T04:52:51.332Z,87.37
2023-03-19T04:55:18.478Z,87.35
2023-03-19T04:57:51.724Z,86.72
2023-03-19T05:00:22.005Z,87.59
2023-03-19T05:02:49.365Z,87.52
2023-03-19T05:05:16.387Z,88.24
2023-03-19T05:07:43.180Z,87.38
2023-03-19T05:10:11.860Z,87.43
2023-03-19T05:12:38.762Z,88.14
2023-03-19T05:15:07.326Z,88.45
2023-03-19T05:17:41.429Z,88.02
2023-03-19T05:20:19.565Z,86.76
2023-03-19T05:22:53.318Z,87.57
2023-03-19T05:25:22.666Z,89.40
2023-03-19T05:27:50.326Z,89.36
2023-03-19T05:30:22.392Z,89.32
2023-03-19T05:33:03.475Z,89.56
2023-03-19T05:35:37.791Z,89.18
2023-03-19T05:38:12.033Z,87.90
2023-03-19T05:40:44.622Z,88.39
2023-03-19T05:43:23.822Z,88.38
2023-03-19T05:45:53.043Z,88.73
2023-03-19T05:48:25.639Z,86.36
2023-03-19T05:50:53.240Z,87.28
2023-03-19T05:53:22.941Z,87.24
2023-03-19T05:56:16.114Z,87.16
2023-03-19T05:58:57.067Z,87.79
2023-03-19T06:01:29.553Z,87.18
2023-03-19T06:03:57.855Z,87.61
2023-03-19T06:06:25.244Z,86.88
2023-03-19T06:08:54.214Z,87.47
2023-03-19T06:11:32.143Z,87.48
2023-03-19T06:14:18.172Z,86.29
2023-03-19T06:17:00.201Z,86.98
2023-03-19T06:19:28.228Z,87.23
2023-03-19T06:21:56.530Z,86.25
2023-03-19T06:24:24.675Z,86.18
2023-03-19T06:26:52.720Z,85.58
2023-03-19T06:29:21.269Z,85.42
2023-03-19T06:31:57.877Z,84.86
2023-03-19T06:34:43.751Z,83.79
2023-03-19T06:37:11.915Z,83.34
2023-03-19T06:39:40.115Z,82.61
2023-03-19T06:42:07.757Z,82.68
2023-03-19T06:44:34.961Z,82.29
2023-03-19T06:47:02.425Z,81.79
2023-03-19T06:49:31.192Z,81.34
2023-03-19T06:51:58.646Z,80.72
2023-03-19T06:54:26.391Z,79.78
2023-03-19T06:56:56.477Z,79.23
2023-03-19T06:59:23.742Z,79.34
2023-03-19T07:01:53.357Z,79.31
2023-03-19T07:04:21.741Z,79.41
2023-03-19T07:06:49.846Z,79.45
2023-03-19T07:09:18.305Z,79.19
2023-03-19T07:11:53.051Z,78.45
2023-03-19T07:14:22.683Z,78.55
2023-03-19T07:16:51.942Z,77.59
2023-03-19T07:19:19.657Z,76.38
2023-03-19T07:21:47.201Z,76.45
2023-03-19T07:24:14.138Z,75.74
2023-03-19T07:26:40.918Z,75.72
2023-03-19T07:29:08.071Z,75.23
2023-03-19T07:31:35.167Z,75.01
2023-03-19T07:34:02.850Z,74.38
2023-03-19T07:36:30.048Z,73.89
2023-03-19T07:38:59.452Z,73.46
2023-03-19T07:41:28.857Z,73.65
2023-03-19T07:43:56.836Z,73.49
2023-03-19T07:46:26.114Z,73.23
2023-03-19T07:48:54.319Z,73.14
2023-03-19T07:51:22.861Z,72.32
2023-03-19T07:53:50.626Z,71.73
2023-03-19T07:56:18.836Z,71.37
2023-03-19T07:58:45.688Z,69.87
2023-03-19T08:01:12.681Z,70.27
2023-03-19T08:03:39.749Z,69.75
2023-03-19T08:06:07.343Z,70.51
2023-03-19T08:08:36.549Z,69.09
2023-03-19T08:11:05.119Z,68.77
2023-03-19T08:13:33.490Z,69.25
2023-03-19T08:16:02.585Z,67.92
2023-03-19T08:18:31.268Z,68.96
2023-03-19T08:20:59.569Z,68.42
2023-03-19T08:23:27.516Z,69.27
2023-03-19T08:25:56.698Z,68.54
2023-03-19T08:28:24.911Z,68.00
2023-03-19T08:30:55.603Z,68.77
2023-03-19T08:33:24.976Z,65.92
2023-03-19T08:35:54.160Z,65.55
2023-03-19T08:38:21.939Z,66.80
2023-03-19T08:40:49.994Z,67.94
2023-03-19T08:43:17.216Z,67.17
2023-03-19T08:45:46.692Z,66.34
2023-03-19T08:48:21.125Z,65.48
2023-03-19T08:51:01.963Z,64.91
2023-03-19T08:53:34.422Z,65.31
2023-03-19T08:56:07.227Z,65.52
2023-03-19T08:58:37.231Z,63.49
2023-03-19T09:01:10.467Z,63.89
2023-03-19T09:03:41.415Z,62.13
2023-03-19T09:06:12.660Z,64.24
2023-03-19T09:08:42.217Z,62.41
2023-03-19T09:11:12.356Z,62.21
2023-03-19T09:13:42.100Z,59.79
2023-03-19T09:16:10.930Z,56.57
2023-03-19T09:18:38.487Z,56.90
2023-03-19T09:21:07.025Z,54.73
2023-03-19T09:23:37.824Z,55.85
2023-03-19T09:26:06.838Z,55.01
2023-03-19T09:28:40.486Z,54.51
2023-03-19T09:31:12.389Z,53.53
2023-03-19T09:33:40.425Z,52.65
2023-03-19T09:36:08.343Z,53.23
2023-03-19T09:38:35.628Z,54.17
2023-03-19T09:41:40.864Z,53.94
2023-03-19T09:44:17.899Z,51.96
2023-03-19T09:47:03.509Z,51.93
2023-03-19T09:49:43.394Z,53.29
2023-03-19T09:52:29.783Z,52.25
2023-03-19T09:54:59.913Z,51.14
2023-03-19T09:57:30.259Z,50.59
2023-03-19T09:59:57.394Z,50.97
2023-03-19T10:02:33.207Z,52.82
2023-03-19T10:05:23.106Z,52.38
2023-03-19T10:07:56.225Z,51.70
2023-03-19T10:10:42.932Z,51.15
2023-03-19T10:13:21.923Z,50.08
2023-03-19T10:15:50.722Z,48.92
2023-03-19T10:18:20.288Z,50.31
2023-03-19T10:20:49.994Z,49.21
2023-03-19T10:23:32.181Z,47.94
2023-03-19T10:26:00.549Z,48.25
2023-03-19T10:28:28.898Z,48.39
2023-03-19T10:31:04.701Z,47.36
2023-03-19T10:34:06.383Z,46.84
2023-03-19T10:36:36.103Z,46.69
2023-03-19T10:39:06.923Z,47.31
2023-03-19T10:42:15.249Z,47.80
2023-03-19T10:44:55.489Z,48.94
2023-03-19T10:47:26.028Z,47.82
2023-03-19T10:49:53.257Z,46.75
2023-03-19T10:52:29.683Z,46.16
2023-03-19T10:55:03.108Z,47.79
2023-03-19T10:57:32.047Z,47.21
2023-03-19T11:00:04.631Z,46.83
2023-03-19T11:02:32.452Z,45.75
2023-03-19T11:05:23.148Z,46.73
2023-03-19T11:07:51.657Z,45.77
2023-03-19T11:10:20.023Z,49.16
2023-03-19T11:12:58.557Z,48.97
2023-03-19T11:15:33.696Z,46.93
2023-03-19T11:18:06.326Z,48.57
2023-03-19T11:20:37.210Z,46.31
2023-03-19T11:23:12.597Z,46.92
2023-03-19T11:25:42.266Z,46.51
2023-03-19T11:28:24.210Z,46.04
2023-03-19T11:31:10.710Z,46.27
2023-03-19T11:34:15.164Z,47.39
2023-03-19T11:37:02.076Z,47.17
2023-03-19T11:39:32.520Z,46.72
2023-03-19T11:42:10.766Z,47.25
2023-03-19T11:44:58.780Z,48.76
2023-03-19T11:47:44.201Z,48.87
2023-03-19T11:50:18.787Z,49.05
2023-03-19T11:53:19.801Z,48.87
2023-03-19T11:56:17.822Z,49.39
2023-03-19T11:59:04.944Z,48.20
2023-03-19T12:02:02.730Z,48.10
2023-03-19T12:04:34.097Z,47.35
2023-03-19T12:07:06.845Z,48.46
2023-03-19T12:10:14.221Z,47.02
2023-03-19T12:12:58.338Z,48.09
2023-03-19T12:15:31.391Z,47.25
2023-03-19T12:18:08.865Z,48.34
2023-03-19T12:21:07.955Z,48.11
2023-03-19T12:23:36.076Z,47.98
2023-03-19T12:26:09.720Z,47.41
2023-03-19T12:28:42.525Z,47.73
2023-03-19T12:31:34.845Z,48.41
2023-03-19T12:34:14.828Z,47.59
2023-03-19T12:36:51.191Z,49.41
2023-03-19T12:39:24.145Z,48.92
2023-03-19T12:41:55.261Z,49.40
2023-03-19T12:44:29.405Z,48.27
2023-03-19T12:46:59.445Z,46.85
2023-03-19T12:49:41.313Z,48.05
2023-03-19T12:52:34.481Z,48.43
2023-03-19T12:55:04.840Z,48.46
2023-03-19T12:57:40.930Z,48.51
2023-03-19T13:00:15.078Z,48.38
2023-03-19T13:03:04.957Z,49.48
2023-03-19T13:06:26.685Z,48.67
2023-03-19T13:09:13.129Z,49.05
2023-03-19T13:11:51.710Z,47.50
2023-03-19T13:14:56.069Z,48.75
2023-03-19T13:17:45.308Z,48.25
2023-03-19T13:20:23.253Z,48.68
2023-03-19T13:22:55.043Z,48.72
2023-03-19T13:25:28.189Z,47.98
2023-03-19T13:27:55.798Z,47.54
2023-03-19T13:30:23.830Z,47.58
2023-03-19T13:33:05.448Z,48.23
2023-03-19T13:35:37.088Z,48.80
2023-03-19T13:38:14.372Z,48.88
2023-03-19T13:40:52.422Z,48.06
2023-03-19T13:43:28.359Z,48.95
2023-03-19T13:46:13.767Z,48.20
2023-03-19T13:48:46.981Z,48.82
2023-03-19T13:51:20.337Z,49.07
2023-03-19T13:54:07.800Z,48.79
2023-03-19T13:57:18.300Z,49.45
2023-03-19T13:59:47.967Z,49.05
2023-03-19T14:02:26.774Z,49.67
2023-03-19T14:05:10.932Z,49.52
2023-03-19T14:07:42.109Z,49.31
2023-03-19T14:10:22.959Z,50.33
2023-03-19T14:12:50.350Z,49.68
2023-03-19T14:15:22.034Z,51.21
2023-03-19T14:17:48.766Z,50.68
2023-03-19T14:20:17.265Z,50.83
2023-03-19T14:22:59.062Z,50.55
2023-03-19T14:25:28.755Z,50.47
2023-03-19T14:28:01.222Z,50.66
2023-03-19T14:30:35.747Z,50.76
2023-03-19T14:33:08.291Z,51.95
2023-03-19T14:35:44.442Z,51.17
2023-03-19T14:38:21.584Z,50.91
2023-03-19T14:40:51.645Z,51.40
2023-03-19T14:43:53.360Z,51.83
2023-03-19T14:46:20.133Z,52.75
2023-03-19T14:49:24.462Z,53.29
2023-03-19T14:51:59.673Z,52.41
2023-03-19T14:54:38.608Z,53.26
2023-03-19T14:57:43.403Z,52.44
2023-03-19T15:00:19.397Z,52.86
2023-03-19T15:02:51.172Z,52.45
2023-03-19T15:05:37.035Z,52.72
2023-03-19T15:08:07.690Z,53.39
2023-03-19T15:11:07.210Z,54.18
2023-03-19T15:13:52.503Z,54.10
2023-03-19T15:16:32.736Z,54.18
2023-03-19T15:18:59.854Z,53.82
2023-03-19T15:21:29.692Z,54.24
2023-03-19T15:23:56.599Z,54.32
2023-03-19T15:26:31.619Z,54.50
2023-03-19T15:28:58.700Z,55.83
2023-03-19T15:32:02.481Z,54.76
2023-03-19T15:34:32.435Z,54.63
2023-03-19T15:37:14.230Z,54.39
2023-03-19T15:39:46.333Z,55.02
2023-03-19T15:42:16.728Z,55.23
2023-03-19T15:44:48.010Z,55.24
2023-03-19T15:47:22.659Z,54.49
2023-03-19T15:49:58.255Z,55.21
2023-03-19T15:52:27.363Z,55.34
2023-03-19T15:54:56.592Z,54.61
2023-03-19T15:57:24.948Z,54.85
2023-03-19T15:59:55.239Z,55.73
2023-03-19T16:02:30.630Z,56.23
2023-03-19T16:05:21.593Z,55.73
2023-03-19T16:07:55.779Z,55.70
2023-03-19T16:10:29.630Z,55.91
2023-03-19T16:12:57.426Z,55.86
2023-03-19T16:15:44.347Z,56.30
2023-03-19T16:18:20.667Z,57.05
2023-03-19T16:21:07.518Z,56.87
2023-03-19T16:23:38.237Z,57.27
2023-03-19T16:26:27.378Z,57.94
2023-03-19T16:29:10.380Z,57.33
2023-03-19T16:32:16.703Z,57.20
2023-03-19T16:34:49.721Z,58.12
2023-03-19T16:37:47.147Z,57.49
2023-03-19T16:40:22.360Z,58.59
2023-03-19T16:42:54.231Z,58.37
2023-03-19T16:45:29.478Z,58.47
2023-03-19T16:47:58.779Z,58.70
2023-03-19T16:50:47.462Z,58.93
2023-03-19T16:53:26.520Z,58.89
2023-03-19T16:55:55.572Z,59.63
2023-03-19T16:58:37.700Z,59.91
2023-03-19T17:01:13.535Z,60.50
2023-03-19T17:03:41.492Z,60.36
2023-03-19T17:06:13.353Z,61.23
2023-03-19T17:08:44.852Z,62.06
2023-03-19T17:11:40.067Z,61.50
2023-03-19T17:14:21.671Z,62.28
2023-03-19T17:16:59.000Z,62.77
2023-03-19T17:19:36.728Z,63.95
2023-03-19T17:22:03.647Z,64.04
2023-03-19T17:24:33.074Z,64.01
2023-03-19T17:27:05.816Z,64.95
2023-03-19T17:29:34.277Z,65.82
2023-03-19T17:32:17.266Z,65.75
2023-03-19T17:34:45.618Z,66.27
2023-03-19T17:37:17.109Z,66.65
2023-03-19T17:39:47.001Z,65.76
2023-03-19T17:42:21.075Z,66.99
2023-03-19T17:44:48.865Z,67.06
2023-03-19T17:47:18.340Z,67.32
2023-03-19T17:49:46.747Z,67.87
2023-03-19T17:52:19.271Z,67.94
2023-03-19T17:54:47.140Z,68.58
2023-03-19T17:57:15.520Z,69.02
2023-03-19T17:59:42.693Z,69.72
2023-03-19T18:02:22.171Z,69.99
2023-03-19T18:04:51.960Z,69.16
2023-03-19T18:07:19.183Z,69.65
2023-03-19T18:09:46.294Z,69.20
2023-03-19T18:12:13.280Z,69.58
2023-03-19T18:14:41.429Z,69.42
2023-03-19T18:17:18.653Z,69.66
2023-03-19T18:19:49.392Z,69.85
2023-03-19T18:22:19.212Z,69.33
2023-03-19T18:24:47.006Z,69.92
2023-03-19T18:27:15.247Z,70.46
2023-03-19T18:29:42.314Z,70.55
2023-03-19T18:32:15.794Z,70.41
2023-03-19T18:34:42.622Z,71.29
2023-03-19T18:37:15.559Z,70.73
2023-03-19T18:39:42.404Z,71.10
2023-03-19T18:42:11.646Z,71.42
2023-03-19T18:44:38.402Z,71.39
2023-03-19T18:47:06.271Z,71.11
2023-03-19T18:49:33.344Z,71.27
2023-03-19T18:52:02.943Z,70.88
2023-03-19T18:54:31.342Z,71.96
2023-03-19T18:56:59.827Z,72.34
2023-03-19T18:59:38.040Z,72.44
2023-03-19T19:02:28.814Z,72.42
2023-03-19T19:04:57.626Z,71.85
2023-03-19T19:07:26.767Z,72.20
2023-03-19T19:09:55.265Z,72.48
2023-03-19T19:12:25.735Z,71.73
2023-03-19T19:14:53.111Z,72.13
2023-03-19T19:17:21.617Z,72.44
2023-03-19T19:19:48.208Z,72.48
2023-03-19T19:22:17.341Z,72.66
2023-03-19T19:24:45.637Z,72.86
2023-03-19T19:27:31.657Z,73.40
2023-03-19T19:30:01.005Z,74.82
2023-03-19T19:32:31.208Z,74.80
2023-03-19T19:34:58.772Z,74.88
2023-03-19T19:37:26.528Z,74.61
2023-03-19T19:39:54.514Z,74.64
2023-03-19T19:42:23.064Z,74.65
2023-03-19T19:44:54.885Z,74.83
2023-03-19T19:47:23.254Z,74.92
2023-03-19T19:49:51.939Z,74.42
2023-03-19T19:52:21.001Z,74.50
2023-03-19T19:54:48.998Z,74.43
2023-03-19T19:57:25.230Z,75.24
2023-03-19T19:59:53.378Z,75.64
2023-03-19T20:02:31.399Z,75.20
2023-03-19T20:04:58.831Z,74.41
2023-03-19T20:07:26.013Z,74.90
2023-03-19T20:09:53.291Z,75.46
2023-03-19T20:12:40.862Z,75.73
2023-03-19T20:15:23.692Z,75.29
2023-03-19T20:17:54.982Z,75.65
2023-03-19T20:20:28.968Z,75.49
2023-03-19T20:23:02.076Z,75.17
2023-03-19T20:25:35.859Z,75.64
2023-03-19T20:28:06.042Z,74.94
2023-03-19T20:30:39.662Z,75.60
2023-03-19T20:33:07.044Z,75.25
2023-03-19T20:35:36.199Z,75.13
2023-03-19T20:38:05.140Z,76.03
2023-03-19T20:40:34.683Z,75.95
2023-03-19T20:43:03.757Z,76.20
2023-03-19T20:45:39.580Z,75.93
2023-03-19T20:48:13.971Z,75.19
2023-03-19T20:50:42.567Z,76.22
2023-03-19T20:53:10.020Z,76.69
2023-03-19T20:55:38.586Z,77.32
2023-03-19T20:58:22.709Z,76.27
2023-03-19T21:00:52.592Z,76.98
2023-03-19T21:03:22.776Z,77.03
2023-03-19T21:05:59.036Z,77.48
2023-03-19T21:08:34.440Z,77.62
2023-03-19T21:11:04.908Z,75.75
2023-03-19T21:13:32.413Z,76.20
2023-03-19T21:16:01.193Z,77.03
2023-03-19T21:18:28.559Z,76.79
2023-03-19T21:20:57.231Z,77.38
2023-03-19T21:23:37.272Z,76.92
2023-03-19T21:26:09.003Z,77.07
2023-03-19T21:28:38.392Z,78.24
2023-03-19T21:31:06.785Z,78.40
2023-03-19T21:33:35.527Z,79.76
2023-03-19T21:36:04.888Z,79.68
2023-03-19T21:38:36.623Z,79.79
2023-03-19T21:41:06.604Z,79.00
2023-03-19T21:43:45.080Z,78.59
2023-03-19T21:46:24.149Z,78.75
2023-03-19T21:48:55.237Z,78.30
2023-03-19T21:51:25.865Z,79.03
2023-03-19T21:53:53.430Z,79.08
2023-03-19T21:56:33.741Z,79.16
2023-03-19T21:59:06.782Z,78.35
2023-03-19T22:01:37.133Z,78.98
2023-03-19T22:04:04.912Z,78.87
2023-03-19T22:06:33.786Z,78.24
2023-03-19T22:09:01.832Z,78.52
2023-03-19T22:11:31.188Z,78.66
2023-03-19T22:14:08.529Z,79.05
2023-03-19T22:16:36.678Z,79.26
2023-03-19T22:19:04.772Z,79.74
2023-03-19T22:21:33.377Z,78.53
2023-03-19T22:24:01.384Z,78.00
2023-03-19T22:26:39.514Z,78.50
2023-03-19T22:29:23.771Z,78.45
2023-03-19T22:31:53.450Z,79.17
2023-03-19T22:34:24.299Z,78.20
2023-03-19T22:36:52.005Z,78.61
2023-03-19T22:39:19.946Z,79.01
2023-03-19T22:41:48.067Z,78.25
2023-03-19T22:44:25.631Z,78.45
2023-03-19T22:46:54.076Z,78.49
2023-03-19T22:49:22.628Z,78.03
2023-03-19T22:51:50.015Z,77.55
2023-03-19T22:54:17.253Z,78.23
2023-03-19T22:56:44.631Z,78.47
2023-03-19T22:59:13.331Z,78.79
2023-03-19T23:01:45.543Z,78.38
2023-03-19T23:04:24.418Z,77.92
2023-03-19T23:06:55.858Z,78.37
2023-03-19T23:09:31.801Z,78.03
2023-03-19T23:11:59.792Z,78.05
2023-03-19T23:14:30.837Z,78.85
2023-03-19T23:17:12.444Z,78.44
2023-03-19T23:19:39.504Z,78.74
2023-03-19T23:22:08.374Z,78.84
2023-03-19T23:24:36.430Z,78.64
2023-03-19T23:27:04.582Z,79.06
2023-03-19T23:29:35.232Z,79.25
2023-03-19T23:32:03.861Z,79.03
2023-03-19T23:34:33.504Z,80.27
2023-03-19T23:37:02.606Z,79.95
2023-03-19T23:39:29.810Z,79.33
2023-03-19T23:41:59.559Z,79.35
2023-03-19T23:44:29.582Z,78.98
2023-03-19T23:47:01.292Z,78.90
2023-03-19T23:49:35.799Z,79.72
2023-03-19T23:52:05.148Z,80.14
2023-03-19T23:54:34.967Z,79.61
2023-03-19T23:57:05.499Z,79.66
2023-03-19T23:59:43.874Z,78.92
